sensor_id;sensor_type;location;lat;lon;timestamp;temperature;humidity
22607;DHT22;11470;20.968;105.834;2022-07-12T00:04:33;27.90;1.00
22607;DHT22;11470;20.968;105.834;2022-07-12T00:09:39;27.40;1.00
22607;DHT22;11470;20.968;105.834;2022-07-12T00:14:43;27.20;99.90
22607;DHT22;11470;20.968;105.834;2022-07-12T00:19:48;26.90;12.90
22607;DHT22;11470;20.968;105.834;2022-07-12T00:24:54;26.80;99.90
22607;DHT22;11470;20.968;105.834;2022-07-12T00:30:00;26.90;67.90
22607;DHT22;11470;20.968;105.834;2022-07-12T00:35:06;26.90;99.90
22607;DHT22;11470;20.968;105.834;2022-07-12T00:40:12;27.00;99.90
22607;DHT22;11470;20.968;105.834;2022-07-12T00:45:17;27.20;99.90
22607;DHT22;11470;20.968;105.834;2022-07-12T00:50:23;27.10;1.00
22607;DHT22;11470;20.968;105.834;2022-07-12T00:55:28;27.20;99.90
22607;DHT22;11470;20.968;105.834;2022-07-12T01:00:34;27.60;1.00
22607;DHT22;11470;20.968;105.834;2022-07-12T01:05:39;28.00;1.00
22607;DHT22;11470;20.968;105.834;2022-07-12T01:10:45;28.40;99.90
22607;DHT22;11470;20.968;105.834;2022-07-12T01:15:51;29.20;99.90
22607;DHT22;11470;20.968;105.834;2022-07-12T01:20:57;29.20;1.00
22607;DHT22;11470;20.968;105.834;2022-07-12T01:26:05;29.30;1.00
22607;DHT22;11470;20.968;105.834;2022-07-12T01:31:10;29.20;1.00
22607;DHT22;11470;20.968;105.834;2022-07-12T01:36:16;29.00;1.00
22607;DHT22;11470;20.968;105.834;2022-07-12T01:41:23;29.10;1.00
22607;DHT22;11470;20.968;105.834;2022-07-12T01:46:28;29.40;1.00
22607;DHT22;11470;20.968;105.834;2022-07-12T01:51:34;29.80;99.90
22607;DHT22;11470;20.968;105.834;2022-07-12T01:56:39;29.70;99.90
22607;DHT22;11470;20.968;105.834;2022-07-12T02:01:46;30.10;99.90
22607;DHT22;11470;20.968;105.834;2022-07-12T02:06:51;30.60;99.90
22607;DHT22;11470;20.968;105.834;2022-07-12T02:11:56;31.60;99.90
22607;DHT22;11470;20.968;105.834;2022-07-12T02:17:02;31.70;99.90
22607;DHT22;11470;20.968;105.834;2022-07-12T02:22:07;31.60;99.90
22607;DHT22;11470;20.968;105.834;2022-07-12T02:27:12;32.00;99.90
22607;DHT22;11470;20.968;105.834;2022-07-12T02:32:18;32.40;99.90
22607;DHT22;11470;20.968;105.834;2022-07-12T02:37:23;32.60;99.90
22607;DHT22;11470;20.968;105.834;2022-07-12T02:42:28;33.00;99.90
22607;DHT22;11470;20.968;105.834;2022-07-12T02:47:35;33.20;99.90
22607;DHT22;11470;20.968;105.834;2022-07-12T02:52:41;33.70;99.90
22607;DHT22;11470;20.968;105.834;2022-07-12T02:57:46;33.90;99.90
22607;DHT22;11470;20.968;105.834;2022-07-12T03:02:51;33.50;99.90
22607;DHT22;11470;20.968;105.834;2022-07-12T03:07:57;32.90;99.90
22607;DHT22;11470;20.968;105.834;2022-07-12T03:13:03;32.90;99.90
22607;DHT22;11470;20.968;105.834;2022-07-12T03:18:08;33.30;99.90
22607;DHT22;11470;20.968;105.834;2022-07-12T03:23:15;33.00;99.90
22607;DHT22;11470;20.968;105.834;2022-07-12T03:28:20;32.40;99.90
22607;DHT22;11470;20.968;105.834;2022-07-12T03:33:25;31.50;99.90
22607;DHT22;11470;20.968;105.834;2022-07-12T03:38:35;30.80;99.90
22607;DHT22;11470;20.968;105.834;2022-07-12T03:43:44;30.80;99.90
22607;DHT22;11470;20.968;105.834;2022-07-12T03:48:49;31.10;99.90
22607;DHT22;11470;20.968;105.834;2022-07-12T03:53:54;31.20;99.90
22607;DHT22;11470;20.968;105.834;2022-07-12T03:59:00;30.30;99.90
22607;DHT22;11470;20.968;105.834;2022-07-12T04:04:05;29.80;99.90
22607;DHT22;11470;20.968;105.834;2022-07-12T04:09:10;30.30;99.90
22607;DHT22;11470;20.968;105.834;2022-07-12T04:14:16;31.60;99.90
22607;DHT22;11470;20.968;105.834;2022-07-12T04:19:22;32.10;99.90
22607;DHT22;11470;20.968;105.834;2022-07-12T04:24:34;32.30;99.90
22607;DHT22;11470;20.968;105.834;2022-07-12T04:29:40;32.60;99.90
22607;DHT22;11470;20.968;105.834;2022-07-12T04:34:45;32.90;99.90
22607;DHT22;11470;20.968;105.834;2022-07-12T04:39:51;33.30;99.90
22607;DHT22;11470;20.968;105.834;2022-07-12T04:44:56;33.30;99.90
22607;DHT22;11470;20.968;105.834;2022-07-12T04:50:05;33.70;99.90
22607;DHT22;11470;20.968;105.834;2022-07-12T04:55:10;33.90;99.90
22607;DHT22;11470;20.968;105.834;2022-07-12T05:00:16;34.20;99.90
22607;DHT22;11470;20.968;105.834;2022-07-12T05:05:21;36.10;99.90
22607;DHT22;11470;20.968;105.834;2022-07-12T05:10:26;37.80;99.90
22607;DHT22;11470;20.968;105.834;2022-07-12T05:15:31;38.90;99.90
22607;DHT22;11470;20.968;105.834;2022-07-12T05:20:37;38.80;99.90
22607;DHT22;11470;20.968;105.834;2022-07-12T05:25:41;38.00;99.90
22607;DHT22;11470;20.968;105.834;2022-07-12T05:30:47;37.40;99.90
22607;DHT22;11470;20.968;105.834;2022-07-12T05:35:52;36.40;99.90
22607;DHT22;11470;20.968;105.834;2022-07-12T05:40:57;34.80;99.90
22607;DHT22;11470;20.968;105.834;2022-07-12T05:46:03;33.20;99.90
22607;DHT22;11470;20.968;105.834;2022-07-12T05:51:08;30.90;99.90
22607;DHT22;11470;20.968;105.834;2022-07-12T05:56:31;29.60;99.90
22607;DHT22;11470;20.968;105.834;2022-07-12T06:01:37;29.70;99.90
22607;DHT22;11470;20.968;105.834;2022-07-12T06:06:42;29.30;99.90
22607;DHT22;11470;20.968;105.834;2022-07-12T06:11:47;29.90;1.00
22607;DHT22;11470;20.968;105.834;2022-07-12T06:16:52;31.00;99.90
22607;DHT22;11470;20.968;105.834;2022-07-12T06:21:58;35.20;99.90
22607;DHT22;11470;20.968;105.834;2022-07-12T06:27:03;37.40;99.90
22607;DHT22;11470;20.968;105.834;2022-07-12T06:32:11;35.30;99.90
22607;DHT22;11470;20.968;105.834;2022-07-12T06:37:18;36.30;99.90
22607;DHT22;11470;20.968;105.834;2022-07-12T06:42:23;36.90;99.90
22607;DHT22;11470;20.968;105.834;2022-07-12T06:47:30;35.80;99.90
22607;DHT22;11470;20.968;105.834;2022-07-12T06:52:35;37.80;99.90
22607;DHT22;11470;20.968;105.834;2022-07-12T06:57:45;38.30;99.90
22607;DHT22;11470;20.968;105.834;2022-07-12T07:02:50;38.70;99.90
22607;DHT22;11470;20.968;105.834;2022-07-12T07:07:56;36.60;99.90
22607;DHT22;11470;20.968;105.834;2022-07-12T07:13:04;35.00;99.90
22607;DHT22;11470;20.968;105.834;2022-07-12T07:18:10;34.80;99.90
22607;DHT22;11470;20.968;105.834;2022-07-12T07:23:16;36.20;99.90
22607;DHT22;11470;20.968;105.834;2022-07-12T07:28:22;38.00;99.90
22607;DHT22;11470;20.968;105.834;2022-07-12T07:33:47;39.80;99.90
22607;DHT22;11470;20.968;105.834;2022-07-12T07:38:52;41.10;99.90
22607;DHT22;11470;20.968;105.834;2022-07-12T07:43:58;42.20;99.90
22607;DHT22;11470;20.968;105.834;2022-07-12T07:49:03;41.80;99.90
22607;DHT22;11470;20.968;105.834;2022-07-12T07:54:08;41.80;99.90
22607;DHT22;11470;20.968;105.834;2022-07-12T07:59:14;40.60;99.90
22607;DHT22;11470;20.968;105.834;2022-07-12T08:04:21;38.90;99.90
22607;DHT22;11470;20.968;105.834;2022-07-12T08:09:26;37.60;99.90
22607;DHT22;11470;20.968;105.834;2022-07-12T08:14:31;36.30;99.90
22607;DHT22;11470;20.968;105.834;2022-07-12T08:19:36;36.90;99.90
22607;DHT22;11470;20.968;105.834;2022-07-12T08:24:42;36.60;99.90
22607;DHT22;11470;20.968;105.834;2022-07-12T08:29:47;37.90;99.90
22607;DHT22;11470;20.968;105.834;2022-07-12T08:34:56;38.40;99.90
22607;DHT22;11470;20.968;105.834;2022-07-12T08:40:02;38.40;99.90
22607;DHT22;11470;20.968;105.834;2022-07-12T08:45:08;36.50;99.90
22607;DHT22;11470;20.968;105.834;2022-07-12T08:50:17;34.90;99.90
22607;DHT22;11470;20.968;105.834;2022-07-12T08:55:27;34.20;99.90
22607;DHT22;11470;20.968;105.834;2022-07-12T09:00:35;34.00;99.90
22607;DHT22;11470;20.968;105.834;2022-07-12T09:05:54;33.70;99.90
22607;DHT22;11470;20.968;105.834;2022-07-12T09:11:02;33.50;99.90
22607;DHT22;11470;20.968;105.834;2022-07-12T09:16:19;33.50;99.90
22607;DHT22;11470;20.968;105.834;2022-07-12T09:21:27;33.30;99.90
22607;DHT22;11470;20.968;105.834;2022-07-12T09:26:34;33.00;99.90
22607;DHT22;11470;20.968;105.834;2022-07-12T09:31:50;32.70;99.90
22607;DHT22;11470;20.968;105.834;2022-07-12T09:37:14;32.40;99.90
22607;DHT22;11470;20.968;105.834;2022-07-12T09:42:20;32.20;99.90
22607;DHT22;11470;20.968;105.834;2022-07-12T09:47:31;32.20;99.90
22607;DHT22;11470;20.968;105.834;2022-07-12T09:52:38;32.00;99.90
22607;DHT22;11470;20.968;105.834;2022-07-12T09:57:45;31.90;99.90
22607;DHT22;11470;20.968;105.834;2022-07-12T10:02:53;31.80;99.90
22607;DHT22;11470;20.968;105.834;2022-07-12T10:08:01;31.70;99.90
22607;DHT22;11470;20.968;105.834;2022-07-12T10:13:06;31.60;99.90
22607;DHT22;11470;20.968;105.834;2022-07-12T10:18:19;31.50;99.90
22607;DHT22;11470;20.968;105.834;2022-07-12T10:23:37;31.50;99.90
22607;DHT22;11470;20.968;105.834;2022-07-12T10:28:58;31.50;99.90
22607;DHT22;11470;20.968;105.834;2022-07-12T10:34:21;31.30;99.90
22607;DHT22;11470;20.968;105.834;2022-07-12T10:39:27;31.00;99.90
22607;DHT22;11470;20.968;105.834;2022-07-12T10:44:48;30.80;99.90
22607;DHT22;11470;20.968;105.834;2022-07-12T10:49:53;30.60;99.90
22607;DHT22;11470;20.968;105.834;2022-07-12T11:00:04;30.20;99.90
22607;DHT22;11470;20.968;105.834;2022-07-12T11:05:10;30.10;99.90
22607;DHT22;11470;20.968;105.834;2022-07-12T11:10:15;30.10;99.90
22607;DHT22;11470;20.968;105.834;2022-07-12T11:15:20;29.90;99.90
22607;DHT22;11470;20.968;105.834;2022-07-12T11:20:28;29.90;99.90
22607;DHT22;11470;20.968;105.834;2022-07-12T11:25:34;29.80;99.90
22607;DHT22;11470;20.968;105.834;2022-07-12T11:30:48;29.70;99.90
22607;DHT22;11470;20.968;105.834;2022-07-12T11:35:54;29.70;99.90
22607;DHT22;11470;20.968;105.834;2022-07-12T11:41:05;29.60;99.90
22607;DHT22;11470;20.968;105.834;2022-07-12T11:46:11;29.60;99.90
22607;DHT22;11470;20.968;105.834;2022-07-12T11:51:18;29.50;99.90
22607;DHT22;11470;20.968;105.834;2022-07-12T11:56:30;29.50;99.90
22607;DHT22;11470;20.968;105.834;2022-07-12T12:01:36;29.40;99.90
22607;DHT22;11470;20.968;105.834;2022-07-12T12:06:41;29.40;99.90
22607;DHT22;11470;20.968;105.834;2022-07-12T12:11:46;29.30;99.90
22607;DHT22;11470;20.968;105.834;2022-07-12T12:16:51;29.30;99.90
22607;DHT22;11470;20.968;105.834;2022-07-12T12:21:56;29.30;99.90
22607;DHT22;11470;20.968;105.834;2022-07-12T12:27:02;29.30;99.90
22607;DHT22;11470;20.968;105.834;2022-07-12T12:32:17;29.30;99.90
22607;DHT22;11470;20.968;105.834;2022-07-12T12:37:24;29.30;99.90
22607;DHT22;11470;20.968;105.834;2022-07-12T12:42:29;29.30;99.90
22607;DHT22;11470;20.968;105.834;2022-07-12T12:48:01;29.30;99.90
22607;DHT22;11470;20.968;105.834;2022-07-12T12:58:26;29.30;99.90
22607;DHT22;11470;20.968;105.834;2022-07-12T13:03:31;29.20;99.90
22607;DHT22;11470;20.968;105.834;2022-07-12T13:08:37;29.20;99.90
22607;DHT22;11470;20.968;105.834;2022-07-12T13:13:42;29.10;99.90
22607;DHT22;11470;20.968;105.834;2022-07-12T13:18:47;29.10;99.90
22607;DHT22;11470;20.968;105.834;2022-07-12T13:23:52;29.10;99.90
22607;DHT22;11470;20.968;105.834;2022-07-12T13:28:58;29.10;99.90
22607;DHT22;11470;20.968;105.834;2022-07-12T13:34:03;29.00;99.90
22607;DHT22;11470;20.968;105.834;2022-07-12T13:39:14;29.00;99.90
22607;DHT22;11470;20.968;105.834;2022-07-12T13:44:37;29.00;99.90
22607;DHT22;11470;20.968;105.834;2022-07-12T13:49:42;29.00;99.90
22607;DHT22;11470;20.968;105.834;2022-07-12T13:54:47;28.90;99.90
22607;DHT22;11470;20.968;105.834;2022-07-12T13:59:52;28.90;99.90
22607;DHT22;11470;20.968;105.834;2022-07-12T14:04:57;28.90;99.90
22607;DHT22;11470;20.968;105.834;2022-07-12T14:10:05;28.90;99.90
22607;DHT22;11470;20.968;105.834;2022-07-12T14:15:10;28.90;99.90
22607;DHT22;11470;20.968;105.834;2022-07-12T14:20:19;28.80;99.90
22607;DHT22;11470;20.968;105.834;2022-07-12T14:25:28;28.80;99.90
22607;DHT22;11470;20.968;105.834;2022-07-12T14:30:37;28.80;99.90
22607;DHT22;11470;20.968;105.834;2022-07-12T14:35:42;28.80;99.90
22607;DHT22;11470;20.968;105.834;2022-07-12T14:40:48;28.80;99.90
22607;DHT22;11470;20.968;105.834;2022-07-12T14:45:53;28.80;99.90
22607;DHT22;11470;20.968;105.834;2022-07-12T14:51:00;28.80;99.90
22607;DHT22;11470;20.968;105.834;2022-07-12T14:56:05;28.80;99.90
22607;DHT22;11470;20.968;105.834;2022-07-12T15:01:10;28.80;99.90
22607;DHT22;11470;20.968;105.834;2022-07-12T15:06:16;28.80;99.90
22607;DHT22;11470;20.968;105.834;2022-07-12T15:11:21;28.80;99.90
22607;DHT22;11470;20.968;105.834;2022-07-12T15:16:26;28.70;99.90
22607;DHT22;11470;20.968;105.834;2022-07-12T15:21:31;28.70;99.90
22607;DHT22;11470;20.968;105.834;2022-07-12T15:26:36;28.70;99.90
22607;DHT22;11470;20.968;105.834;2022-07-12T15:31:44;28.70;99.90
22607;DHT22;11470;20.968;105.834;2022-07-12T15:36:50;28.70;99.90
22607;DHT22;11470;20.968;105.834;2022-07-12T15:41:58;28.70;99.90
22607;DHT22;11470;20.968;105.834;2022-07-12T15:47:07;28.70;99.90
22607;DHT22;11470;20.968;105.834;2022-07-12T15:52:17;28.60;99.90
22607;DHT22;11470;20.968;105.834;2022-07-12T15:57:41;28.60;1.00
22607;DHT22;11470;20.968;105.834;2022-07-12T16:02:49;28.60;1.00
22607;DHT22;11470;20.968;105.834;2022-07-12T16:07:55;28.60;1.00
22607;DHT22;11470;20.968;105.834;2022-07-12T16:13:00;28.60;1.00
22607;DHT22;11470;20.968;105.834;2022-07-12T16:18:06;28.50;1.00
22607;DHT22;11470;20.968;105.834;2022-07-12T16:23:11;28.50;1.00
22607;DHT22;11470;20.968;105.834;2022-07-12T16:28:17;28.50;1.00
22607;DHT22;11470;20.968;105.834;2022-07-12T16:33:21;28.50;1.00
22607;DHT22;11470;20.968;105.834;2022-07-12T16:38:27;28.50;1.00
22607;DHT22;11470;20.968;105.834;2022-07-12T16:43:34;28.50;1.00
22607;DHT22;11470;20.968;105.834;2022-07-12T16:48:39;28.50;1.00
22607;DHT22;11470;20.968;105.834;2022-07-12T16:53:44;28.50;1.00
22607;DHT22;11470;20.968;105.834;2022-07-12T16:58:51;28.50;1.00
22607;DHT22;11470;20.968;105.834;2022-07-12T17:03:56;28.50;1.00
22607;DHT22;11470;20.968;105.834;2022-07-12T17:09:02;28.40;1.00
22607;DHT22;11470;20.968;105.834;2022-07-12T17:14:08;28.50;1.00
22607;DHT22;11470;20.968;105.834;2022-07-12T17:19:13;28.50;1.00
22607;DHT22;11470;20.968;105.834;2022-07-12T17:24:20;28.50;1.00
22607;DHT22;11470;20.968;105.834;2022-07-12T17:29:26;28.50;1.00
22607;DHT22;11470;20.968;105.834;2022-07-12T17:34:31;28.50;1.00
22607;DHT22;11470;20.968;105.834;2022-07-12T17:39:39;28.50;1.00
22607;DHT22;11470;20.968;105.834;2022-07-12T17:44:44;28.50;1.00
22607;DHT22;11470;20.968;105.834;2022-07-12T17:49:49;28.40;1.00
22607;DHT22;11470;20.968;105.834;2022-07-12T17:54:54;28.40;1.00
22607;DHT22;11470;20.968;105.834;2022-07-12T17:59:59;28.30;1.00
22607;DHT22;11470;20.968;105.834;2022-07-12T18:05:06;28.30;1.00
22607;DHT22;11470;20.968;105.834;2022-07-12T18:10:12;28.30;1.00
22607;DHT22;11470;20.968;105.834;2022-07-12T18:15:17;28.30;1.00
22607;DHT22;11470;20.968;105.834;2022-07-12T18:20:22;28.30;1.00
22607;DHT22;11470;20.968;105.834;2022-07-12T18:25:34;28.40;1.00
22607;DHT22;11470;20.968;105.834;2022-07-12T18:30:39;28.40;1.00
22607;DHT22;11470;20.968;105.834;2022-07-12T18:35:50;28.30;1.00
22607;DHT22;11470;20.968;105.834;2022-07-12T18:40:55;28.30;1.00
22607;DHT22;11470;20.968;105.834;2022-07-12T18:46:01;28.30;1.00
22607;DHT22;11470;20.968;105.834;2022-07-12T18:51:06;28.30;1.00
22607;DHT22;11470;20.968;105.834;2022-07-12T18:56:11;28.30;1.00
22607;DHT22;11470;20.968;105.834;2022-07-12T19:01:16;28.30;1.00
22607;DHT22;11470;20.968;105.834;2022-07-12T19:06:21;28.40;1.00
22607;DHT22;11470;20.968;105.834;2022-07-12T19:11:26;28.40;1.00
22607;DHT22;11470;20.968;105.834;2022-07-12T19:16:32;28.40;1.00
22607;DHT22;11470;20.968;105.834;2022-07-12T19:21:37;28.40;1.00
22607;DHT22;11470;20.968;105.834;2022-07-12T19:26:43;28.40;1.00
22607;DHT22;11470;20.968;105.834;2022-07-12T19:31:48;28.50;1.00
22607;DHT22;11470;20.968;105.834;2022-07-12T19:36:53;28.50;1.00
22607;DHT22;11470;20.968;105.834;2022-07-12T19:41:58;28.40;1.00
22607;DHT22;11470;20.968;105.834;2022-07-12T19:47:03;28.40;1.00
22607;DHT22;11470;20.968;105.834;2022-07-12T19:52:09;28.40;1.00
22607;DHT22;11470;20.968;105.834;2022-07-12T19:57:14;28.40;1.00
22607;DHT22;11470;20.968;105.834;2022-07-12T20:02:20;28.40;1.00
22607;DHT22;11470;20.968;105.834;2022-07-12T20:07:25;28.30;1.00
22607;DHT22;11470;20.968;105.834;2022-07-12T20:12:30;28.30;1.00
22607;DHT22;11470;20.968;105.834;2022-07-12T20:17:35;28.30;1.00
22607;DHT22;11470;20.968;105.834;2022-07-12T20:22:41;28.40;1.00
22607;DHT22;11470;20.968;105.834;2022-07-12T20:27:47;28.40;1.00
22607;DHT22;11470;20.968;105.834;2022-07-12T20:32:52;28.40;1.00
22607;DHT22;11470;20.968;105.834;2022-07-12T20:38:20;28.30;1.00
22607;DHT22;11470;20.968;105.834;2022-07-12T20:43:26;28.30;1.00
22607;DHT22;11470;20.968;105.834;2022-07-12T20:48:32;28.30;1.00
22607;DHT22;11470;20.968;105.834;2022-07-12T20:53:37;28.30;1.00
22607;DHT22;11470;20.968;105.834;2022-07-12T20:58:42;28.20;1.00
22607;DHT22;11470;20.968;105.834;2022-07-12T21:03:47;28.20;1.00
22607;DHT22;11470;20.968;105.834;2022-07-12T21:08:52;28.10;1.00
22607;DHT22;11470;20.968;105.834;2022-07-12T21:14:00;28.10;1.00
22607;DHT22;11470;20.968;105.834;2022-07-12T21:19:05;28.00;1.00
22607;DHT22;11470;20.968;105.834;2022-07-12T21:24:11;28.00;1.00
22607;DHT22;11470;20.968;105.834;2022-07-12T21:29:16;27.90;1.00
22607;DHT22;11470;20.968;105.834;2022-07-12T21:34:21;27.90;1.00
22607;DHT22;11470;20.968;105.834;2022-07-12T21:39:27;27.90;1.00
22607;DHT22;11470;20.968;105.834;2022-07-12T21:44:32;27.90;1.00
22607;DHT22;11470;20.968;105.834;2022-07-12T21:49:37;27.90;8.30
22607;DHT22;11470;20.968;105.834;2022-07-12T21:54:42;27.90;19.40
22607;DHT22;11470;20.968;105.834;2022-07-12T21:59:47;27.90;58.10
22607;DHT22;11470;20.968;105.834;2022-07-12T22:04:52;27.80;79.70
22607;DHT22;11470;20.968;105.834;2022-07-12T22:09:57;27.80;99.90
22607;DHT22;11470;20.968;105.834;2022-07-12T22:15:02;27.80;99.90
22607;DHT22;11470;20.968;105.834;2022-07-12T22:20:09;27.80;99.90
22607;DHT22;11470;20.968;105.834;2022-07-12T22:25:14;27.80;99.90
22607;DHT22;11470;20.968;105.834;2022-07-12T22:30:19;27.80;99.90
22607;DHT22;11470;20.968;105.834;2022-07-12T22:35:24;27.80;99.90
22607;DHT22;11470;20.968;105.834;2022-07-12T22:40:29;27.90;99.90
22607;DHT22;11470;20.968;105.834;2022-07-12T22:45:44;27.90;99.90
22607;DHT22;11470;20.968;105.834;2022-07-12T22:50:53;27.90;99.90
22607;DHT22;11470;20.968;105.834;2022-07-12T22:56:16;28.00;18.90
22607;DHT22;11470;20.968;105.834;2022-07-12T23:01:21;28.10;1.00
22607;DHT22;11470;20.968;105.834;2022-07-12T23:06:27;28.10;1.00
22607;DHT22;11470;20.968;105.834;2022-07-12T23:11:32;28.30;1.00
22607;DHT22;11470;20.968;105.834;2022-07-12T23:16:37;28.40;1.00
22607;DHT22;11470;20.968;105.834;2022-07-12T23:21:43;28.40;1.00
22607;DHT22;11470;20.968;105.834;2022-07-12T23:26:48;28.30;1.00
22607;DHT22;11470;20.968;105.834;2022-07-12T23:31:53;28.30;1.00
22607;DHT22;11470;20.968;105.834;2022-07-12T23:36:58;28.30;1.00
22607;DHT22;11470;20.968;105.834;2022-07-12T23:42:03;27.80;1.00
22607;DHT22;11470;20.968;105.834;2022-07-12T23:47:08;26.80;99.90
22607;DHT22;11470;20.968;105.834;2022-07-12T23:52:13;25.70;1.00
22607;DHT22;11470;20.968;105.834;2022-07-12T23:57:18;25.40;99.90
